sensor_id;sensor_type;location;lat;lon;timestamp;P1;durP1;ratioP1;P2;durP2;ratioP2
13228;SDS011;6680;53.220;10.402;2023-04-03T00:00:19;3.00;;;1.93;;
13228;SDS011;6680;53.220;10.402;2023-04-03T00:02:46;2.70;;;2.10;;
13228;SDS011;6680;53.220;10.402;2023-04-03T00:05:12;2.20;;;2.00;;
13228;SDS011;6680;53.220;10.402;2023-04-03T00:07:39;2.70;;;2.07;;
13228;SDS011;6680;53.220;10.402;2023-04-03T00:10:07;10.37;;;2.43;;
13228;SDS011;6680;53.220;10.402;2023-04-03T00:12:34;3.77;;;2.43;;
13228;SDS011;6680;53.220;10.402;2023-04-03T00:15:02;2.47;;;2.20;;
13228;SDS011;6680;53.220;10.402;2023-04-03T00:17:29;4.03;;;2.30;;
13228;SDS011;6680;53.220;10.402;2023-04-03T00:19:56;3.60;;;2.20;;
13228;SDS011;6680;53.220;10.402;2023-04-03T00:22:23;2.17;;;1.97;;
13228;SDS011;6680;53.220;10.402;2023-04-03T00:24:51;2.93;;;2.13;;
13228;SDS011;6680;53.220;10.402;2023-04-03T00:27:18;6.67;;;2.10;;
13228;SDS011;6680;53.220;10.402;2023-04-03T00:29:44;2.93;;;2.00;;
13228;SDS011;6680;53.220;10.402;2023-04-03T00:32:12;3.27;;;2.23;;
13228;SDS011;6680;53.220;10.402;2023-04-03T00:34:39;2.90;;;1.77;;
13228;SDS011;6680;53.220;10.402;2023-04-03T00:37:06;2.47;;;2.27;;
13228;SDS011;6680;53.220;10.402;2023-04-03T00:39:33;5.10;;;2.90;;
13228;SDS011;6680;53.220;10.402;2023-04-03T00:41:59;3.90;;;1.90;;
13228;SDS011;6680;53.220;10.402;2023-04-03T00:47:27;5.20;;;2.10;;
13228;SDS011;6680;53.220;10.402;2023-04-03T00:49:56;3.97;;;2.90;;
13228;SDS011;6680;53.220;10.402;2023-04-03T00:52:25;2.03;;;1.83;;
13228;SDS011;6680;53.220;10.402;2023-04-03T00:54:57;2.10;;;1.93;;
13228;SDS011;6680;53.220;10.402;2023-04-03T00:57:27;6.83;;;2.53;;
13228;SDS011;6680;53.220;10.402;2023-04-03T00:59:57;6.30;;;2.17;;
13228;SDS011;6680;53.220;10.402;2023-04-03T01:02:29;4.57;;;2.83;;
13228;SDS011;6680;53.220;10.402;2023-04-03T01:04:55;1.90;;;1.73;;
13228;SDS011;6680;53.220;10.402;2023-04-03T01:07:23;2.90;;;2.23;;
13228;SDS011;6680;53.220;10.402;2023-04-03T01:09:54;2.77;;;2.10;;
13228;SDS011;6680;53.220;10.402;2023-04-03T01:12:25;2.20;;;2.00;;
13228;SDS011;6680;53.220;10.402;2023-04-03T01:14:53;5.53;;;2.37;;
13228;SDS011;6680;53.220;10.402;2023-04-03T01:17:24;2.87;;;2.10;;
13228;SDS011;6680;53.220;10.402;2023-04-03T01:19:58;5.17;;;2.30;;
13228;SDS011;6680;53.220;10.402;2023-04-03T01:22:59;3.30;;;2.20;;
13228;SDS011;6680;53.220;10.402;2023-04-03T01:25:32;2.90;;;2.33;;
13228;SDS011;6680;53.220;10.402;2023-04-03T01:28:01;1.70;;;1.60;;
13228;SDS011;6680;53.220;10.402;2023-04-03T01:30:30;5.27;;;2.10;;
13228;SDS011;6680;53.220;10.402;2023-04-03T01:32:59;3.47;;;2.00;;
13228;SDS011;6680;53.220;10.402;2023-04-03T01:35:26;3.23;;;2.10;;
13228;SDS011;6680;53.220;10.402;2023-04-03T01:37:52;3.10;;;2.37;;
13228;SDS011;6680;53.220;10.402;2023-04-03T01:40:19;6.93;;;2.37;;
13228;SDS011;6680;53.220;10.402;2023-04-03T01:42:46;3.90;;;2.10;;
13228;SDS011;6680;53.220;10.402;2023-04-03T01:45:12;3.43;;;1.90;;
13228;SDS011;6680;53.220;10.402;2023-04-03T01:47:39;2.43;;;1.97;;
13228;SDS011;6680;53.220;10.402;2023-04-03T01:50:08;2.77;;;2.37;;
13228;SDS011;6680;53.220;10.402;2023-04-03T01:52:35;4.03;;;2.30;;
13228;SDS011;6680;53.220;10.402;2023-04-03T01:55:02;3.40;;;2.37;;
13228;SDS011;6680;53.220;10.402;2023-04-03T01:57:29;3.17;;;2.20;;
13228;SDS011;6680;53.220;10.402;2023-04-03T01:59:55;4.70;;;2.00;;
13228;SDS011;6680;53.220;10.402;2023-04-03T02:02:22;2.50;;;2.30;;
13228;SDS011;6680;53.220;10.402;2023-04-03T02:04:49;4.57;;;2.60;;
13228;SDS011;6680;53.220;10.402;2023-04-03T02:07:18;2.33;;;2.13;;
13228;SDS011;6680;53.220;10.402;2023-04-03T02:09:44;3.17;;;2.23;;
13228;SDS011;6680;53.220;10.402;2023-04-03T02:12:11;3.60;;;2.53;;
13228;SDS011;6680;53.220;10.402;2023-04-03T02:14:38;2.60;;;2.40;;
13228;SDS011;6680;53.220;10.402;2023-04-03T02:17:04;7.80;;;4.07;;
13228;SDS011;6680;53.220;10.402;2023-04-03T02:19:33;2.83;;;2.50;;
13228;SDS011;6680;53.220;10.402;2023-04-03T02:22:00;6.33;;;2.87;;
13228;SDS011;6680;53.220;10.402;2023-04-03T02:24:28;6.20;;;2.37;;
13228;SDS011;6680;53.220;10.402;2023-04-03T02:26:55;4.23;;;2.60;;
13228;SDS011;6680;53.220;10.402;2023-04-03T02:29:21;9.17;;;2.80;;
13228;SDS011;6680;53.220;10.402;2023-04-03T02:31:48;3.37;;;2.03;;
13228;SDS011;6680;53.220;10.402;2023-04-03T02:34:15;4.90;;;2.63;;
13228;SDS011;6680;53.220;10.402;2023-04-03T02:36:42;3.13;;;2.60;;
13228;SDS011;6680;53.220;10.402;2023-04-03T02:39:10;8.33;;;2.70;;
13228;SDS011;6680;53.220;10.402;2023-04-03T02:41:38;3.90;;;2.17;;
13228;SDS011;6680;53.220;10.402;2023-04-03T02:44:06;5.97;;;2.30;;
13228;SDS011;6680;53.220;10.402;2023-04-03T02:46:33;6.30;;;2.40;;
13228;SDS011;6680;53.220;10.402;2023-04-03T02:49:00;4.83;;;2.50;;
13228;SDS011;6680;53.220;10.402;2023-04-03T02:51:26;5.23;;;2.47;;
13228;SDS011;6680;53.220;10.402;2023-04-03T02:53:53;2.70;;;2.47;;
13228;SDS011;6680;53.220;10.402;2023-04-03T02:56:19;4.90;;;2.60;;
13228;SDS011;6680;53.220;10.402;2023-04-03T02:58:47;4.80;;;2.40;;
13228;SDS011;6680;53.220;10.402;2023-04-03T03:01:15;7.00;;;2.70;;
13228;SDS011;6680;53.220;10.402;2023-04-03T03:03:41;2.33;;;2.13;;
13228;SDS011;6680;53.220;10.402;2023-04-03T03:06:09;2.83;;;2.40;;
13228;SDS011;6680;53.220;10.402;2023-04-03T03:08:37;3.13;;;2.47;;
13228;SDS011;6680;53.220;10.402;2023-04-03T03:11:04;2.93;;;2.63;;
13228;SDS011;6680;53.220;10.402;2023-04-03T03:13:31;4.73;;;2.60;;
13228;SDS011;6680;53.220;10.402;2023-04-03T03:15:59;4.33;;;2.50;;
13228;SDS011;6680;53.220;10.402;2023-04-03T03:18:26;4.97;;;2.70;;
13228;SDS011;6680;53.220;10.402;2023-04-03T03:20:53;4.07;;;2.50;;
13228;SDS011;6680;53.220;10.402;2023-04-03T03:23:21;7.90;;;2.40;;
13228;SDS011;6680;53.220;10.402;2023-04-03T03:25:54;6.60;;;3.13;;
13228;SDS011;6680;53.220;10.402;2023-04-03T03:28:21;5.73;;;2.40;;
13228;SDS011;6680;53.220;10.402;2023-04-03T03:30:48;6.10;;;1.93;;
13228;SDS011;6680;53.220;10.402;2023-04-03T03:33:16;5.57;;;3.47;;
13228;SDS011;6680;53.220;10.402;2023-04-03T03:35:43;4.13;;;2.90;;
13228;SDS011;6680;53.220;10.402;2023-04-03T03:38:10;4.33;;;2.47;;
13228;SDS011;6680;53.220;10.402;2023-04-03T03:40:37;4.57;;;2.83;;
13228;SDS011;6680;53.220;10.402;2023-04-03T03:43:03;2.53;;;2.23;;
13228;SDS011;6680;53.220;10.402;2023-04-03T03:45:31;3.80;;;2.40;;
13228;SDS011;6680;53.220;10.402;2023-04-03T03:47:57;4.70;;;2.60;;
13228;SDS011;6680;53.220;10.402;2023-04-03T03:50:26;7.60;;;2.63;;
13228;SDS011;6680;53.220;10.402;2023-04-03T03:52:53;7.53;;;2.50;;
13228;SDS011;6680;53.220;10.402;2023-04-03T03:55:19;3.33;;;2.70;;
13228;SDS011;6680;53.220;10.402;2023-04-03T03:57:46;4.97;;;2.60;;
13228;SDS011;6680;53.220;10.402;2023-04-03T04:00:13;4.93;;;2.67;;
13228;SDS011;6680;53.220;10.402;2023-04-03T04:02:41;5.27;;;1.90;;
13228;SDS011;6680;53.220;10.402;2023-04-03T04:05:08;5.03;;;2.70;;
13228;SDS011;6680;53.220;10.402;2023-04-03T04:07:36;3.83;;;2.73;;
13228;SDS011;6680;53.220;10.402;2023-04-03T04:10:03;5.30;;;2.83;;
13228;SDS011;6680;53.220;10.402;2023-04-03T04:12:30;2.53;;;2.30;;
13228;SDS011;6680;53.220;10.402;2023-04-03T04:14:57;4.07;;;2.50;;
13228;SDS011;6680;53.220;10.402;2023-04-03T04:17:23;3.87;;;2.67;;
13228;SDS011;6680;53.220;10.402;2023-04-03T04:19:50;4.80;;;2.93;;
13228;SDS011;6680;53.220;10.402;2023-04-03T04:22:17;3.13;;;2.47;;
13228;SDS011;6680;53.220;10.402;2023-04-03T04:24:45;5.33;;;2.50;;
13228;SDS011;6680;53.220;10.402;2023-04-03T04:27:11;2.70;;;2.50;;
13228;SDS011;6680;53.220;10.402;2023-04-03T04:29:38;10.53;;;3.13;;
13228;SDS011;6680;53.220;10.402;2023-04-03T04:32:05;3.93;;;2.80;;
13228;SDS011;6680;53.220;10.402;2023-04-03T04:34:32;3.03;;;2.67;;
13228;SDS011;6680;53.220;10.402;2023-04-03T04:36:58;2.50;;;2.30;;
13228;SDS011;6680;53.220;10.402;2023-04-03T04:39:25;5.07;;;2.53;;
13228;SDS011;6680;53.220;10.402;2023-04-03T04:41:53;3.90;;;2.83;;
13228;SDS011;6680;53.220;10.402;2023-04-03T04:44:20;3.40;;;2.60;;
13228;SDS011;6680;53.220;10.402;2023-04-03T04:46:46;4.63;;;2.67;;
13228;SDS011;6680;53.220;10.402;2023-04-03T04:49:13;6.07;;;2.80;;
13228;SDS011;6680;53.220;10.402;2023-04-03T04:51:40;5.27;;;2.70;;
13228;SDS011;6680;53.220;10.402;2023-04-03T04:54:07;4.13;;;2.37;;
13228;SDS011;6680;53.220;10.402;2023-04-03T04:56:33;2.90;;;2.47;;
13228;SDS011;6680;53.220;10.402;2023-04-03T04:59:02;7.77;;;2.80;;
13228;SDS011;6680;53.220;10.402;2023-04-03T05:01:28;5.33;;;3.77;;
13228;SDS011;6680;53.220;10.402;2023-04-03T05:03:55;6.10;;;2.67;;
13228;SDS011;6680;53.220;10.402;2023-04-03T05:06:22;4.20;;;2.00;;
13228;SDS011;6680;53.220;10.402;2023-04-03T05:08:48;2.97;;;2.40;;
13228;SDS011;6680;53.220;10.402;2023-04-03T05:11:15;3.83;;;2.57;;
13228;SDS011;6680;53.220;10.402;2023-04-03T05:13:41;8.10;;;2.70;;
13228;SDS011;6680;53.220;10.402;2023-04-03T05:16:10;10.13;;;3.33;;
13228;SDS011;6680;53.220;10.402;2023-04-03T05:18:36;3.23;;;2.43;;
13228;SDS011;6680;53.220;10.402;2023-04-03T05:21:03;7.83;;;2.77;;
13228;SDS011;6680;53.220;10.402;2023-04-03T05:23:30;4.07;;;2.67;;
13228;SDS011;6680;53.220;10.402;2023-04-03T05:25:57;4.57;;;3.03;;
13228;SDS011;6680;53.220;10.402;2023-04-03T05:28:24;6.37;;;3.03;;
13228;SDS011;6680;53.220;10.402;2023-04-03T05:30:54;3.73;;;2.33;;
13228;SDS011;6680;53.220;10.402;2023-04-03T05:33:22;3.63;;;3.03;;
13228;SDS011;6680;53.220;10.402;2023-04-03T05:35:51;5.93;;;2.97;;
13228;SDS011;6680;53.220;10.402;2023-04-03T05:38:18;2.77;;;2.30;;
13228;SDS011;6680;53.220;10.402;2023-04-03T05:40:44;5.37;;;2.47;;
13228;SDS011;6680;53.220;10.402;2023-04-03T05:43:11;3.93;;;2.00;;
13228;SDS011;6680;53.220;10.402;2023-04-03T05:45:38;3.73;;;2.50;;
13228;SDS011;6680;53.220;10.402;2023-04-03T05:48:05;8.87;;;3.63;;
13228;SDS011;6680;53.220;10.402;2023-04-03T05:50:33;7.57;;;4.80;;
13228;SDS011;6680;53.220;10.402;2023-04-03T05:53:01;6.47;;;2.37;;
13228;SDS011;6680;53.220;10.402;2023-04-03T05:55:29;5.30;;;2.90;;
13228;SDS011;6680;53.220;10.402;2023-04-03T05:57:55;5.60;;;2.53;;
13228;SDS011;6680;53.220;10.402;2023-04-03T06:00:22;2.97;;;2.40;;
13228;SDS011;6680;53.220;10.402;2023-04-03T06:02:49;4.03;;;2.87;;
13228;SDS011;6680;53.220;10.402;2023-04-03T06:05:16;5.37;;;2.60;;
13228;SDS011;6680;53.220;10.402;2023-04-03T06:07:45;3.33;;;2.20;;
13228;SDS011;6680;53.220;10.402;2023-04-03T06:10:12;8.20;;;3.03;;
13228;SDS011;6680;53.220;10.402;2023-04-03T06:12:38;3.17;;;2.70;;
13228;SDS011;6680;53.220;10.402;2023-04-03T06:15:07;5.47;;;3.17;;
13228;SDS011;6680;53.220;10.402;2023-04-03T06:17:35;3.20;;;2.50;;
13228;SDS011;6680;53.220;10.402;2023-04-03T06:20:02;3.40;;;3.10;;
13228;SDS011;6680;53.220;10.402;2023-04-03T06:22:29;10.53;;;3.10;;
13228;SDS011;6680;53.220;10.402;2023-04-03T06:24:57;5.60;;;2.70;;
13228;SDS011;6680;53.220;10.402;2023-04-03T06:27:24;4.13;;;2.40;;
13228;SDS011;6680;53.220;10.402;2023-04-03T06:29:51;2.80;;;2.13;;
13228;SDS011;6680;53.220;10.402;2023-04-03T06:32:17;3.33;;;2.33;;
13228;SDS011;6680;53.220;10.402;2023-04-03T06:34:44;4.07;;;2.67;;
13228;SDS011;6680;53.220;10.402;2023-04-03T06:37:12;2.50;;;2.30;;
13228;SDS011;6680;53.220;10.402;2023-04-03T06:39:41;3.60;;;2.20;;
13228;SDS011;6680;53.220;10.402;2023-04-03T06:42:09;2.80;;;2.17;;
13228;SDS011;6680;53.220;10.402;2023-04-03T06:44:36;3.90;;;2.50;;
13228;SDS011;6680;53.220;10.402;2023-04-03T06:47:03;4.63;;;2.30;;
13228;SDS011;6680;53.220;10.402;2023-04-03T06:49:30;3.03;;;2.37;;
13228;SDS011;6680;53.220;10.402;2023-04-03T06:51:57;3.10;;;2.73;;
13228;SDS011;6680;53.220;10.402;2023-04-03T06:54:24;2.97;;;2.13;;
13228;SDS011;6680;53.220;10.402;2023-04-03T06:56:51;2.90;;;2.07;;
13228;SDS011;6680;53.220;10.402;2023-04-03T06:59:19;4.43;;;2.60;;
13228;SDS011;6680;53.220;10.402;2023-04-03T07:01:46;5.77;;;2.17;;
13228;SDS011;6680;53.220;10.402;2023-04-03T07:04:12;4.33;;;2.20;;
13228;SDS011;6680;53.220;10.402;2023-04-03T07:06:39;2.63;;;2.00;;
13228;SDS011;6680;53.220;10.402;2023-04-03T07:09:06;3.87;;;1.83;;
13228;SDS011;6680;53.220;10.402;2023-04-03T07:11:34;2.57;;;1.90;;
13228;SDS011;6680;53.220;10.402;2023-04-03T07:14:01;3.93;;;1.87;;
13228;SDS011;6680;53.220;10.402;2023-04-03T07:16:29;2.73;;;2.03;;
13228;SDS011;6680;53.220;10.402;2023-04-03T07:18:56;3.90;;;2.30;;
13228;SDS011;6680;53.220;10.402;2023-04-03T07:21:23;4.13;;;2.07;;
13228;SDS011;6680;53.220;10.402;2023-04-03T07:23:50;2.80;;;1.70;;
13228;SDS011;6680;53.220;10.402;2023-04-03T07:26:17;2.47;;;2.03;;
13228;SDS011;6680;53.220;10.402;2023-04-03T07:28:45;3.97;;;2.27;;
13228;SDS011;6680;53.220;10.402;2023-04-03T07:31:13;3.60;;;1.97;;
13228;SDS011;6680;53.220;10.402;2023-04-03T07:33:43;2.60;;;1.60;;
13228;SDS011;6680;53.220;10.402;2023-04-03T07:36:11;3.27;;;1.70;;
13228;SDS011;6680;53.220;10.402;2023-04-03T07:38:42;1.93;;;1.73;;
13228;SDS011;6680;53.220;10.402;2023-04-03T07:41:10;2.37;;;2.17;;
13228;SDS011;6680;53.220;10.402;2023-04-03T07:43:39;2.93;;;1.70;;
13228;SDS011;6680;53.220;10.402;2023-04-03T07:46:07;7.27;;;1.80;;
13228;SDS011;6680;53.220;10.402;2023-04-03T07:48:34;4.63;;;2.23;;
13228;SDS011;6680;53.220;10.402;2023-04-03T07:51:03;1.90;;;1.80;;
13228;SDS011;6680;53.220;10.402;2023-04-03T07:53:31;4.03;;;1.63;;
13228;SDS011;6680;53.220;10.402;2023-04-03T07:55:58;6.60;;;1.93;;
13228;SDS011;6680;53.220;10.402;2023-04-03T07:58:26;2.33;;;1.50;;
13228;SDS011;6680;53.220;10.402;2023-04-03T08:00:53;3.53;;;1.90;;
13228;SDS011;6680;53.220;10.402;2023-04-03T08:03:20;2.10;;;1.90;;
13228;SDS011;6680;53.220;10.402;2023-04-03T08:05:47;3.70;;;1.77;;
13228;SDS011;6680;53.220;10.402;2023-04-03T08:08:17;1.87;;;1.70;;
13228;SDS011;6680;53.220;10.402;2023-04-03T08:10:47;1.40;;;1.33;;
13228;SDS011;6680;53.220;10.402;2023-04-03T08:13:16;2.70;;;1.63;;
13228;SDS011;6680;53.220;10.402;2023-04-03T08:15:42;1.87;;;1.60;;
13228;SDS011;6680;53.220;10.402;2023-04-03T08:18:09;2.07;;;1.70;;
13228;SDS011;6680;53.220;10.402;2023-04-03T08:20:37;3.00;;;1.80;;
13228;SDS011;6680;53.220;10.402;2023-04-03T08:23:05;1.70;;;1.60;;
13228;SDS011;6680;53.220;10.402;2023-04-03T08:25:33;2.40;;;1.40;;
13228;SDS011;6680;53.220;10.402;2023-04-03T08:28:00;1.60;;;1.50;;
13228;SDS011;6680;53.220;10.402;2023-04-03T08:30:27;4.20;;;1.73;;
13228;SDS011;6680;53.220;10.402;2023-04-03T08:32:53;1.53;;;1.40;;
13228;SDS011;6680;53.220;10.402;2023-04-03T08:35:20;1.73;;;1.63;;
13228;SDS011;6680;53.220;10.402;2023-04-03T08:37:47;1.57;;;1.47;;
13228;SDS011;6680;53.220;10.402;2023-04-03T08:40:14;1.70;;;1.47;;
13228;SDS011;6680;53.220;10.402;2023-04-03T08:42:47;1.50;;;1.40;;
13228;SDS011;6680;53.220;10.402;2023-04-03T08:45:26;1.53;;;1.43;;
13228;SDS011;6680;53.220;10.402;2023-04-03T08:48:02;1.97;;;1.70;;
13228;SDS011;6680;53.220;10.402;2023-04-03T08:50:33;1.70;;;1.60;;
13228;SDS011;6680;53.220;10.402;2023-04-03T08:53:05;1.10;;;1.10;;
13228;SDS011;6680;53.220;10.402;2023-04-03T08:55:39;1.47;;;1.37;;
13228;SDS011;6680;53.220;10.402;2023-04-03T08:58:11;1.73;;;1.57;;
13228;SDS011;6680;53.220;10.402;2023-04-03T09:00:43;4.00;;;1.63;;
13228;SDS011;6680;53.220;10.402;2023-04-03T09:03:12;2.47;;;1.60;;
13228;SDS011;6680;53.220;10.402;2023-04-03T09:05:40;2.10;;;1.40;;
13228;SDS011;6680;53.220;10.402;2023-04-03T09:08:12;4.63;;;1.47;;
13228;SDS011;6680;53.220;10.402;2023-04-03T09:10:45;1.20;;;1.17;;
13228;SDS011;6680;53.220;10.402;2023-04-03T09:13:21;3.50;;;1.67;;
13228;SDS011;6680;53.220;10.402;2023-04-03T09:15:52;2.00;;;1.57;;
13228;SDS011;6680;53.220;10.402;2023-04-03T09:18:21;1.17;;;1.17;;
13228;SDS011;6680;53.220;10.402;2023-04-03T09:20:54;1.77;;;1.27;;
13228;SDS011;6680;53.220;10.402;2023-04-03T09:23:28;1.40;;;1.30;;
13228;SDS011;6680;53.220;10.402;2023-04-03T09:26:00;4.57;;;1.37;;
13228;SDS011;6680;53.220;10.402;2023-04-03T09:28:31;4.67;;;1.60;;
13228;SDS011;6680;53.220;10.402;2023-04-03T09:31:01;2.13;;;1.60;;
13228;SDS011;6680;53.220;10.402;2023-04-03T09:33:28;2.57;;;1.27;;
13228;SDS011;6680;53.220;10.402;2023-04-03T09:35:59;2.57;;;1.77;;
13228;SDS011;6680;53.220;10.402;2023-04-03T09:38:26;2.73;;;1.40;;
13228;SDS011;6680;53.220;10.402;2023-04-03T09:41:02;2.03;;;1.40;;
13228;SDS011;6680;53.220;10.402;2023-04-03T09:43:34;3.40;;;1.57;;
13228;SDS011;6680;53.220;10.402;2023-04-03T09:48:51;2.10;;;1.73;;
13228;SDS011;6680;53.220;10.402;2023-04-03T09:51:24;1.80;;;1.40;;
13228;SDS011;6680;53.220;10.402;2023-04-03T09:53:52;1.73;;;1.63;;
13228;SDS011;6680;53.220;10.402;2023-04-03T09:56:22;2.73;;;1.53;;
13228;SDS011;6680;53.220;10.402;2023-04-03T09:59:03;1.73;;;1.60;;
13228;SDS011;6680;53.220;10.402;2023-04-03T10:01:38;1.70;;;1.60;;
13228;SDS011;6680;53.220;10.402;2023-04-03T10:04:08;1.47;;;1.37;;
13228;SDS011;6680;53.220;10.402;2023-04-03T10:06:37;3.07;;;1.70;;
13228;SDS011;6680;53.220;10.402;2023-04-03T10:09:14;1.97;;;1.87;;
13228;SDS011;6680;53.220;10.402;2023-04-03T10:11:57;1.40;;;1.30;;
13228;SDS011;6680;53.220;10.402;2023-04-03T10:14:27;3.03;;;1.47;;
13228;SDS011;6680;53.220;10.402;2023-04-03T10:16:56;1.70;;;1.60;;
13228;SDS011;6680;53.220;10.402;2023-04-03T10:19:34;2.07;;;1.80;;
13228;SDS011;6680;53.220;10.402;2023-04-03T10:22:06;3.67;;;1.50;;
13228;SDS011;6680;53.220;10.402;2023-04-03T10:24:44;1.50;;;1.40;;
13228;SDS011;6680;53.220;10.402;2023-04-03T10:27:22;1.30;;;1.20;;
13228;SDS011;6680;53.220;10.402;2023-04-03T10:30:01;5.50;;;1.60;;
13228;SDS011;6680;53.220;10.402;2023-04-03T10:32:45;2.40;;;1.53;;
13228;SDS011;6680;53.220;10.402;2023-04-03T10:35:25;3.43;;;1.80;;
13228;SDS011;6680;53.220;10.402;2023-04-03T10:38:04;1.23;;;1.20;;
13228;SDS011;6680;53.220;10.402;2023-04-03T10:40:43;3.63;;;1.50;;
13228;SDS011;6680;53.220;10.402;2023-04-03T10:43:17;1.77;;;1.60;;
13228;SDS011;6680;53.220;10.402;2023-04-03T10:45:57;2.37;;;2.03;;
13228;SDS011;6680;53.220;10.402;2023-04-03T10:48:35;1.40;;;1.40;;
13228;SDS011;6680;53.220;10.402;2023-04-03T10:51:16;2.03;;;1.70;;
13228;SDS011;6680;53.220;10.402;2023-04-03T10:53:51;1.50;;;1.40;;
13228;SDS011;6680;53.220;10.402;2023-04-03T10:56:27;3.40;;;1.43;;
13228;SDS011;6680;53.220;10.402;2023-04-03T10:59:05;1.50;;;1.40;;
13228;SDS011;6680;53.220;10.402;2023-04-03T11:01:44;2.53;;;1.67;;
13228;SDS011;6680;53.220;10.402;2023-04-03T11:04:13;1.70;;;1.60;;
13228;SDS011;6680;53.220;10.402;2023-04-03T11:06:43;1.93;;;1.33;;
13228;SDS011;6680;53.220;10.402;2023-04-03T11:09:17;1.70;;;1.60;;
13228;SDS011;6680;53.220;10.402;2023-04-03T11:11:47;2.20;;;1.70;;
13228;SDS011;6680;53.220;10.402;2023-04-03T11:14:17;1.23;;;1.23;;
13228;SDS011;6680;53.220;10.402;2023-04-03T11:16:53;1.53;;;1.43;;
13228;SDS011;6680;53.220;10.402;2023-04-03T11:19:29;1.73;;;1.63;;
13228;SDS011;6680;53.220;10.402;2023-04-03T11:22:01;1.50;;;1.40;;
13228;SDS011;6680;53.220;10.402;2023-04-03T11:24:34;2.27;;;1.67;;
13228;SDS011;6680;53.220;10.402;2023-04-03T11:27:03;1.50;;;1.40;;
13228;SDS011;6680;53.220;10.402;2023-04-03T11:29:32;1.90;;;1.50;;
13228;SDS011;6680;53.220;10.402;2023-04-03T11:32:08;1.50;;;1.40;;
13228;SDS011;6680;53.220;10.402;2023-04-03T11:34:44;1.80;;;1.70;;
13228;SDS011;6680;53.220;10.402;2023-04-03T11:37:13;1.90;;;1.80;;
13228;SDS011;6680;53.220;10.402;2023-04-03T11:39:50;1.87;;;1.60;;
13228;SDS011;6680;53.220;10.402;2023-04-03T11:47:51;3.20;;;1.73;;
13228;SDS011;6680;53.220;10.402;2023-04-03T11:53:26;4.63;;;2.00;;
13228;SDS011;6680;53.220;10.402;2023-04-03T11:55:59;2.43;;;1.87;;
13228;SDS011;6680;53.220;10.402;2023-04-03T11:58:27;3.53;;;2.00;;
13228;SDS011;6680;53.220;10.402;2023-04-03T12:01:03;1.90;;;1.80;;
13228;SDS011;6680;53.220;10.402;2023-04-03T12:03:35;3.47;;;2.03;;
13228;SDS011;6680;53.220;10.402;2023-04-03T12:12:39;1.77;;;1.50;;
13228;SDS011;6680;53.220;10.402;2023-04-03T12:18:31;1.50;;;1.40;;
13228;SDS011;6680;53.220;10.402;2023-04-03T12:21:10;1.47;;;1.37;;
13228;SDS011;6680;53.220;10.402;2023-04-03T12:26:30;1.50;;;1.40;;
13228;SDS011;6680;53.220;10.402;2023-04-03T12:29:01;3.30;;;1.70;;
13228;SDS011;6680;53.220;10.402;2023-04-03T12:31:37;1.53;;;1.43;;
13228;SDS011;6680;53.220;10.402;2023-04-03T12:34:15;2.80;;;1.70;;
13228;SDS011;6680;53.220;10.402;2023-04-03T12:36:54;1.90;;;1.60;;
13228;SDS011;6680;53.220;10.402;2023-04-03T12:39:41;1.60;;;1.50;;
13228;SDS011;6680;53.220;10.402;2023-04-03T12:42:18;2.80;;;1.80;;
13228;SDS011;6680;53.220;10.402;2023-04-03T12:45:07;2.20;;;1.33;;
13228;SDS011;6680;53.220;10.402;2023-04-03T12:47:42;1.83;;;1.60;;
13228;SDS011;6680;53.220;10.402;2023-04-03T12:50:17;2.90;;;1.43;;
13228;SDS011;6680;53.220;10.402;2023-04-03T12:52:50;3.43;;;1.90;;
13228;SDS011;6680;53.220;10.402;2023-04-03T12:58:42;2.63;;;2.43;;
13228;SDS011;6680;53.220;10.402;2023-04-03T13:01:10;3.23;;;1.83;;
13228;SDS011;6680;53.220;10.402;2023-04-03T13:03:39;1.60;;;1.50;;
13228;SDS011;6680;53.220;10.402;2023-04-03T13:06:13;3.17;;;1.80;;
13228;SDS011;6680;53.220;10.402;2023-04-03T13:08:48;1.80;;;1.70;;
13228;SDS011;6680;53.220;10.402;2023-04-03T13:11:16;2.90;;;1.70;;
13228;SDS011;6680;53.220;10.402;2023-04-03T13:13:53;1.80;;;1.70;;
13228;SDS011;6680;53.220;10.402;2023-04-03T13:16:21;2.13;;;1.63;;
13228;SDS011;6680;53.220;10.402;2023-04-03T13:18:50;2.47;;;1.60;;
13228;SDS011;6680;53.220;10.402;2023-04-03T13:21:20;4.30;;;1.97;;
13228;SDS011;6680;53.220;10.402;2023-04-03T13:23:51;2.13;;;1.57;;
13228;SDS011;6680;53.220;10.402;2023-04-03T13:26:21;2.47;;;1.93;;
13228;SDS011;6680;53.220;10.402;2023-04-03T13:28:51;3.10;;;1.87;;
13228;SDS011;6680;53.220;10.402;2023-04-03T13:31:20;6.80;;;2.10;;
13228;SDS011;6680;53.220;10.402;2023-04-03T13:33:53;1.80;;;1.67;;
13228;SDS011;6680;53.220;10.402;2023-04-03T13:36:24;2.10;;;1.70;;
13228;SDS011;6680;53.220;10.402;2023-04-03T13:38:59;2.60;;;1.40;;
13228;SDS011;6680;53.220;10.402;2023-04-03T13:41:29;2.57;;;1.53;;
13228;SDS011;6680;53.220;10.402;2023-04-03T13:46:57;1.63;;;1.53;;
13228;SDS011;6680;53.220;10.402;2023-04-03T13:49:31;1.90;;;1.67;;
13228;SDS011;6680;53.220;10.402;2023-04-03T13:52:02;3.10;;;1.57;;
13228;SDS011;6680;53.220;10.402;2023-04-03T13:54:47;1.67;;;1.57;;
13228;SDS011;6680;53.220;10.402;2023-04-03T13:57:17;2.20;;;1.77;;
13228;SDS011;6680;53.220;10.402;2023-04-03T13:59:44;1.80;;;1.60;;
13228;SDS011;6680;53.220;10.402;2023-04-03T14:02:15;1.63;;;1.53;;
13228;SDS011;6680;53.220;10.402;2023-04-03T14:04:47;1.90;;;1.70;;
13228;SDS011;6680;53.220;10.402;2023-04-03T14:07:20;2.10;;;1.77;;
13228;SDS011;6680;53.220;10.402;2023-04-03T14:09:49;3.73;;;1.70;;
13228;SDS011;6680;53.220;10.402;2023-04-03T14:12:17;4.40;;;1.60;;
13228;SDS011;6680;53.220;10.402;2023-04-03T14:14:47;1.60;;;1.50;;
13228;SDS011;6680;53.220;10.402;2023-04-03T14:17:15;1.67;;;1.57;;
13228;SDS011;6680;53.220;10.402;2023-04-03T14:19:44;1.70;;;1.60;;
13228;SDS011;6680;53.220;10.402;2023-04-03T14:22:14;1.97;;;1.73;;
13228;SDS011;6680;53.220;10.402;2023-04-03T14:24:43;2.90;;;1.43;;
13228;SDS011;6680;53.220;10.402;2023-04-03T14:27:13;3.03;;;1.70;;
13228;SDS011;6680;53.220;10.402;2023-04-03T14:29:43;2.60;;;1.50;;
13228;SDS011;6680;53.220;10.402;2023-04-03T14:32:10;1.93;;;1.83;;
13228;SDS011;6680;53.220;10.402;2023-04-03T14:34:38;3.03;;;1.50;;
13228;SDS011;6680;53.220;10.402;2023-04-03T14:37:04;2.13;;;1.87;;
13228;SDS011;6680;53.220;10.402;2023-04-03T14:39:35;1.33;;;1.23;;
13228;SDS011;6680;53.220;10.402;2023-04-03T14:42:03;7.37;;;1.90;;
13228;SDS011;6680;53.220;10.402;2023-04-03T14:44:30;1.50;;;1.40;;
13228;SDS011;6680;53.220;10.402;2023-04-03T14:46:56;1.43;;;1.37;;
13228;SDS011;6680;53.220;10.402;2023-04-03T14:49:24;1.93;;;1.83;;
13228;SDS011;6680;53.220;10.402;2023-04-03T14:51:54;1.53;;;1.40;;
13228;SDS011;6680;53.220;10.402;2023-04-03T14:54:21;1.57;;;1.47;;
13228;SDS011;6680;53.220;10.402;2023-04-03T14:56:50;1.80;;;1.70;;
13228;SDS011;6680;53.220;10.402;2023-04-03T14:59:18;1.87;;;1.33;;
13228;SDS011;6680;53.220;10.402;2023-04-03T15:01:46;4.10;;;1.60;;
13228;SDS011;6680;53.220;10.402;2023-04-03T15:04:15;1.63;;;1.53;;
13228;SDS011;6680;53.220;10.402;2023-04-03T15:06:42;1.53;;;1.43;;
13228;SDS011;6680;53.220;10.402;2023-04-03T15:09:12;1.80;;;1.70;;
13228;SDS011;6680;53.220;10.402;2023-04-03T15:11:46;1.50;;;1.40;;
13228;SDS011;6680;53.220;10.402;2023-04-03T15:14:13;1.60;;;1.50;;
13228;SDS011;6680;53.220;10.402;2023-04-03T15:16:41;3.83;;;1.63;;
13228;SDS011;6680;53.220;10.402;2023-04-03T15:19:08;2.10;;;1.50;;
13228;SDS011;6680;53.220;10.402;2023-04-03T15:21:34;1.70;;;1.60;;
13228;SDS011;6680;53.220;10.402;2023-04-03T15:24:01;1.97;;;1.80;;
13228;SDS011;6680;53.220;10.402;2023-04-03T15:26:28;3.03;;;1.80;;
13228;SDS011;6680;53.220;10.402;2023-04-03T15:28:55;1.67;;;1.57;;
13228;SDS011;6680;53.220;10.402;2023-04-03T15:31:22;3.37;;;1.50;;
13228;SDS011;6680;53.220;10.402;2023-04-03T15:33:50;1.67;;;1.57;;